Awaji Maru — JD2988 — position and weather

sailwx.info

Track history (hours):
 
Tides and Currents Weather Stations Pressure Air Temp Water Temp Dewpoint Dewpoint Depression Visibility Wind Speed Wind Dir Waves Ship Positions

Awaji Maru

Last reported at 2015-Aug-31 08:34 UTC. Time now 2015-Aug-31 08:54 UTC.
Position N 35°23' E 139°40'.

Length 37 m; draft 3 m.

Type: Tug. MMSI: 431001074.

Date/timePositionNaut miles runAvg speedWind from/ knotsBaromVisibWave heightAir tempDewpointWater temp
2015-Aug-31 08:34N 35°23' E 139°40'1 0.9
2015-Aug-31 07:33N 35°24' E 139°41'4 4.1
2015-Aug-31 06:33N 35°28' E 139°42'0 0.4
2015-Aug-31 05:33N 35°28' E 139°42'3 3.3
2015-Aug-31 04:33N 35°24' E 139°42'1 0.9
2015-Aug-31 03:34N 35°24' E 139°41'2 1.5
2015-Aug-31 02:33N 35°25' E 139°42'2 2.3
2015-Aug-31 01:33N 35°27' E 139°40'0 0.0
2015-Aug-31 00:33N 35°27' E 139°40'2 1.7
2015-Aug-30 23:33N 35°29' E 139°39'4 3.8
2015-Aug-30 22:33N 35°25' E 139°41'1 1.1
2015-Aug-30 21:33N 35°26' E 139°43'3 2.8
2015-Aug-30 20:33N 35°27' E 139°40'0 0.1
2015-Aug-30 19:33N 35°27' E 139°40'0 0.0
2015-Aug-30 18:33N 35°27' E 139°40'0 0.0
2015-Aug-30 17:33N 35°27' E 139°40'0 0.0
2015-Aug-30 16:33N 35°27' E 139°40'0 0.0
2015-Aug-30 15:33N 35°27' E 139°40'0 0.0
2015-Aug-30 14:33N 35°27' E 139°40'0 0.0
2015-Aug-30 13:33N 35°27' E 139°40'0 0.0
2015-Aug-30 12:33N 35°27' E 139°40'0 0.0
2015-Aug-30 11:33N 35°27' E 139°40'0 0.0
2015-Aug-30 10:33N 35°27' E 139°40'0 0.0
2015-Aug-30 09:33N 35°27' E 139°40'0 0.0
2015-Aug-30 08:33N 35°27' E 139°40'3 3.4
2015-Aug-30 07:33N 35°24' E 139°40'1 1.4
2015-Aug-30 06:33N 35°24' E 139°39'3 2.6
2015-Aug-30 05:33N 35°24' E 139°42'2 2.2
2015-Aug-30 04:33N 35°26' E 139°41'1 0.6
2015-Aug-30 03:33N 35°26' E 139°42'2 2.5
2015-Aug-30 02:33N 35°24' E 139°40'0 0.1
2015-Aug-30 01:33N 35°24' E 139°39'2 1.9
2015-Aug-30 00:33N 35°22' E 139°41'2 1.5
2015-Aug-29 23:33N 35°24' E 139°40'1 0.7
2015-Aug-29 22:34N 35°24' E 139°41'4 3.6
2015-Aug-29 21:33N 35°27' E 139°40'0 0.0
2015-Aug-29 20:33N 35°27' E 139°40'0 0.0
2015-Aug-29 19:33N 35°27' E 139°40'0 0.0
2015-Aug-29 18:33N 35°27' E 139°40'0 0.0
2015-Aug-29 17:33N 35°27' E 139°40'0 0.0
2015-Aug-29 16:33N 35°27' E 139°40'0 0.0
2015-Aug-29 15:33N 35°27' E 139°40'0 0.0
2015-Aug-29 14:33N 35°27' E 139°40'0 0.0
2015-Aug-29 13:33N 35°27' E 139°40'0 0.0
2015-Aug-29 12:33N 35°27' E 139°40'0 0.0
2015-Aug-29 11:33N 35°27' E 139°40'0 0.0
2015-Aug-29 10:33N 35°27' E 139°40'0 0.0
2015-Aug-29 09:33N 35°27' E 139°40'0 0.0
2015-Aug-29 08:33N 35°27' E 139°40'4 3.9
2015-Aug-29 07:33N 35°28' E 139°44'2 2.2
2015-Aug-29 06:33N 35°30' E 139°45'2 2.4
2015-Aug-29 05:33N 35°29' E 139°42'4 3.6
2015-Aug-29 04:33N 35°26' E 139°44'4 4.2
2015-Aug-29 03:33N 35°27' E 139°40'1 0.8
2015-Aug-29 02:33N 35°28' E 139°41'6 5.8
2015-Aug-29 01:34N 35°31' E 139°46'0 0.1
2015-Aug-29 00:33N 35°31' E 139°46'3 3.4
2015-Aug-28 23:33N 35°28' E 139°47'1 0.9
2015-Aug-28 22:33N 35°29' E 139°47'3 2.9
2015-Aug-28 21:34N 35°32' E 139°46'7 6.8
2015-Aug-28 20:34N 35°27' E 139°40'0 0.1
2015-Aug-28 19:33N 35°27' E 139°40'0 0.0
2015-Aug-28 18:33N 35°27' E 139°40'0 0.0
2015-Aug-28 17:33N 35°27' E 139°40'0 0.0
2015-Aug-28 16:33N 35°27' E 139°40'0 0.0
2015-Aug-28 15:33N 35°27' E 139°40'0 0.0
2015-Aug-28 14:33N 35°27' E 139°40'0 0.0
2015-Aug-28 13:33N 35°27' E 139°40'0 0.0
2015-Aug-28 12:33N 35°27' E 139°40'0 0.0
2015-Aug-28 11:33N 35°27' E 139°40'0 0.0
2015-Aug-28 10:33N 35°27' E 139°40'0 0.0
2015-Aug-28 09:33N 35°27' E 139°40'0 0.2
2015-Aug-28 08:33N 35°27' E 139°40'2 1.9
2015-Aug-28 07:33N 35°25' E 139°41'0 0.1
2015-Aug-28 06:33N 35°25' E 139°41'2 1.9
2015-Aug-28 05:34N 35°27' E 139°41'0 0.4
2015-Aug-28 04:33N 35°27' E 139°41'2 2.1
2015-Aug-28 03:33N 35°26' E 139°43'1 1.0
2015-Aug-28 02:33N 35°26' E 139°42'0 0.0
2015-Aug-28 01:33N 35°26' E 139°42'8 8.4
2015-Aug-28 00:33N 35°30' E 139°51'6 6.2
2015-Aug-27 23:33N 35°28' E 139°58'5 4.8
2015-Aug-27 22:33N 35°28' E 139°52'1010.1
2015-Aug-27 21:33N 35°27' E 139°40'0 0.2
2015-Aug-27 20:33N 35°27' E 139°40'0 0.0
2015-Aug-27 19:33N 35°27' E 139°40'0 0.0
2015-Aug-27 18:33N 35°27' E 139°40'0 0.0
2015-Aug-27 17:33N 35°27' E 139°40'0 0.0
2015-Aug-27 16:33N 35°27' E 139°40'0 0.0
2015-Aug-27 15:33N 35°27' E 139°40'0 0.0
2015-Aug-27 14:33N 35°27' E 139°40'0 0.0
2015-Aug-27 13:33N 35°27' E 139°40'0 0.0
2015-Aug-27 12:33N 35°27' E 139°40'0 0.0
2015-Aug-27 11:33N 35°27' E 139°40'0 0.0
2015-Aug-27 10:33N 35°27' E 139°40'0 0.0
2015-Aug-27 09:33N 35°27' E 139°40'2 2.3
2015-Aug-27 08:33N 35°28' E 139°42'2 2.4
2015-Aug-27 07:33N 35°27' E 139°39'0 0.0
2015-Aug-27 06:33N 35°27' E 139°39'0 0.0
2015-Aug-27 05:33N 35°27' E 139°39'3 2.5
2015-Aug-27 04:33N 35°25' E 139°39'0 0.1
2015-Aug-27 03:33N 35°24' E 139°39'2 2.2
2015-Aug-27 02:33N 35°23' E 139°41'4 3.9
2015-Aug-27 01:33N 35°27' E 139°40'0 0.0
2015-Aug-27 00:33N 35°27' E 139°40'0 0.0
2015-Aug-26 23:33N 35°27' E 139°40'0 0.0
2015-Aug-26 22:33N 35°27' E 139°40'0 0.0
2015-Aug-26 21:33N 35°27' E 139°40'0 0.0
2015-Aug-26 20:33N 35°27' E 139°40'0 0.0
2015-Aug-26 19:33N 35°27' E 139°40'0 0.0
2015-Aug-26 18:33N 35°27' E 139°40'0 0.0
2015-Aug-26 17:33N 35°27' E 139°40'0 0.0
2015-Aug-26 16:33N 35°27' E 139°40'0 0.0
2015-Aug-26 15:33N 35°27' E 139°40'0 0.0
2015-Aug-26 14:33N 35°27' E 139°40'0 0.0
2015-Aug-26 13:33N 35°27' E 139°40'0 0.0
2015-Aug-26 12:33N 35°27' E 139°40'0 0.0
2015-Aug-26 11:33N 35°27' E 139°40'0 0.0
2015-Aug-26 10:33N 35°27' E 139°40'0 0.0
2015-Aug-26 09:33N 35°27' E 139°40'0 0.0
2015-Aug-26 08:33N 35°27' E 139°40'0 0.0
2015-Aug-26 07:33N 35°27' E 139°40'0 0.0
2015-Aug-26 06:33N 35°27' E 139°40'0 0.0
2015-Aug-26 05:33N 35°27' E 139°40'0 0.0
2015-Aug-26 04:33N 35°27' E 139°40'0 0.0
2015-Aug-26 03:33N 35°27' E 139°40'0 0.0
2015-Aug-26 02:33N 35°27' E 139°40'0 0.0
2015-Aug-26 01:33N 35°27' E 139°40'0 0.0
2015-Aug-26 00:33N 35°27' E 139°40'0 0.0
2015-Aug-25 23:33N 35°27' E 139°40'0 0.0
2015-Aug-25 22:33N 35°27' E 139°40'2 2.2
2015-Aug-25 21:34N 35°25' E 139°42'0 0.0
2015-Aug-25 20:33N 35°25' E 139°41'2 1.6
2015-Aug-25 19:33N 35°24' E 139°41'1 1.0
2015-Aug-25 18:33N 35°23' E 139°40'3 3.3
2015-Aug-25 17:34N 35°26' E 139°41'2 1.5
2015-Aug-25 16:33N 35°27' E 139°39'0 0.0
2015-Aug-25 15:33N 35°27' E 139°39'0 0.0
2015-Aug-25 14:33N 35°27' E 139°39'0 0.0
2015-Aug-25 13:33N 35°27' E 139°39'0 0.0
2015-Aug-25 12:33N 35°27' E 139°39'0 0.0
2015-Aug-25 11:33N 35°27' E 139°39'0 0.2
2015-Aug-25 10:33N 35°27' E 139°39'0 0.2
2015-Aug-25 09:33N 35°27' E 139°39'0 0.0
2015-Aug-25 08:33N 35°27' E 139°39'0 0.0
2015-Aug-25 07:33N 35°27' E 139°39'1 1.3
2015-Aug-25 06:33N 35°27' E 139°41'1 0.5
2015-Aug-25 05:33N 35°28' E 139°41'0 0.0
2015-Aug-25 04:33N 35°28' E 139°41'0 0.0
2015-Aug-25 03:33N 35°28' E 139°41'0 0.0
2015-Aug-25 02:33N 35°28' E 139°41'0 0.0
2015-Aug-25 01:33N 35°28' E 139°41'0 0.0
2015-Aug-25 00:33N 35°28' E 139°41'2 2.4
2015-Aug-24 23:33N 35°26' E 139°42'3 2.5
2015-Aug-24 22:33N 35°27' E 139°40'0 0.0
2015-Aug-24 21:33N 35°27' E 139°40'0 0.0
2015-Aug-24 20:33N 35°27' E 139°40'0 0.0
2015-Aug-24 19:33N 35°27' E 139°40'0 0.0
2015-Aug-24 18:33N 35°27' E 139°40'0 0.0
2015-Aug-24 17:33N 35°27' E 139°40'0 0.0
2015-Aug-24 16:33N 35°27' E 139°40'0 0.0
2015-Aug-24 15:33N 35°27' E 139°40'0 0.0
2015-Aug-24 14:33N 35°27' E 139°40'0 0.0
2015-Aug-24 13:33N 35°27' E 139°40'0 0.0
2015-Aug-24 12:33N 35°27' E 139°40'0 0.0
2015-Aug-24 11:33N 35°27' E 139°40'0 0.0
2015-Aug-24 10:33N 35°27' E 139°40'0 0.0
2015-Aug-24 09:33N 35°27' E 139°40'0 0.0
2015-Aug-24 08:33N 35°27' E 139°40'0 0.0
2015-Aug-24 07:33N 35°27' E 139°40'0 0.0
2015-Aug-24 06:33N 35°27' E 139°40'1 0.8
2015-Aug-24 05:33N 35°27' E 139°41'1 0.9
2015-Aug-24 04:33N 35°26' E 139°41'1 1.3
2015-Aug-24 03:33N 35°28' E 139°41'0 0.0
2015-Aug-24 02:33N 35°28' E 139°41'0 0.0
2015-Aug-24 01:33N 35°28' E 139°41'1 0.9
2015-Aug-24 00:33N 35°28' E 139°42'3 2.7
2015-Aug-23 23:33N 35°26' E 139°44'4 4.1
2015-Aug-23 22:33N 35°27' E 139°40'0 0.0
2015-Aug-23 21:33N 35°27' E 139°40'0 0.0
2015-Aug-23 20:33N 35°27' E 139°40'0 0.0
2015-Aug-23 19:33N 35°27' E 139°40'0 0.0
2015-Aug-23 18:33N 35°27' E 139°40'0 0.0
2015-Aug-23 17:33N 35°27' E 139°40'0 0.0
2015-Aug-23 16:33N 35°27' E 139°40'0 0.0
2015-Aug-23 15:33N 35°27' E 139°40'0 0.0
2015-Aug-23 14:33N 35°27' E 139°40'0 0.0
2015-Aug-23 13:33N 35°27' E 139°40'0 0.0
2015-Aug-23 12:33N 35°27' E 139°40'0 0.0
2015-Aug-23 11:33N 35°27' E 139°40'0 0.0
2015-Aug-23 10:33N 35°27' E 139°40'0 0.0
2015-Aug-23 09:33N 35°27' E 139°40'0 0.0
2015-Aug-23 08:33N 35°27' E 139°40'0 0.0
2015-Aug-23 07:33N 35°27' E 139°40'0 0.0
2015-Aug-23 06:33N 35°27' E 139°40'0 0.0
2015-Aug-23 05:33N 35°27' E 139°40'0 0.0
2015-Aug-23 04:33N 35°27' E 139°40'0 0.0
2015-Aug-23 03:33N 35°27' E 139°40'0 0.0
2015-Aug-23 02:33N 35°27' E 139°40'0 0.0
2015-Aug-23 01:33N 35°27' E 139°40'0 0.0
2015-Aug-23 00:33N 35°27' E 139°40'0 0.0
2015-Aug-22 23:33N 35°27' E 139°40'0 0.0
2015-Aug-22 22:33N 35°27' E 139°40'0 0.0
2015-Aug-22 21:33N 35°27' E 139°40'0 0.0
2015-Aug-22 20:33N 35°27' E 139°40'0 0.0
2015-Aug-22 19:33N 35°27' E 139°40'0 0.0
2015-Aug-22 18:33N 35°27' E 139°40'0 0.0
2015-Aug-22 17:33N 35°27' E 139°40'0 0.0
2015-Aug-22 16:33N 35°27' E 139°40'0 0.0
2015-Aug-22 15:33N 35°27' E 139°40'0 0.0
2015-Aug-22 14:33N 35°27' E 139°40'0 0.0
2015-Aug-22 13:33N 35°27' E 139°40'0 0.0
2015-Aug-22 12:33N 35°27' E 139°40'0 0.0
2015-Aug-22 11:33N 35°27' E 139°40'0 0.0
2015-Aug-22 10:33N 35°27' E 139°40'0 0.0
2015-Aug-22 09:33N 35°27' E 139°40'0 0.4
2015-Aug-22 08:33N 35°27' E 139°40'4 3.7
2015-Aug-22 07:33N 35°24' E 139°42'4 3.5
2015-Aug-22 06:33N 35°27' E 139°40'1 1.5
2015-Aug-22 05:33N 35°27' E 139°42'0 0.0
2015-Aug-22 04:33N 35°27' E 139°42'3 2.8
2015-Aug-22 03:33N 35°24' E 139°42'1 0.7
2015-Aug-22 02:33N 35°24' E 139°41'1 1.4
2015-Aug-22 01:33N 35°23' E 139°40'0 0.0
2015-Aug-22 00:33N 35°23' E 139°40'0 0.0
2015-Aug-21 23:33N 35°23' E 139°40'2 2.0
2015-Aug-21 22:33N 35°24' E 139°37'2 2.0
2015-Aug-21 21:33N 35°24' E 139°40'3 3.2
2015-Aug-21 20:33N 35°27' E 139°39'0 0.1
2015-Aug-21 19:33N 35°27' E 139°40'0 0.0
2015-Aug-21 18:33N 35°27' E 139°40'0 0.0
2015-Aug-21 17:33N 35°27' E 139°40'0 0.0
2015-Aug-21 16:33N 35°27' E 139°40'0 0.0
2015-Aug-21 15:33N 35°27' E 139°40'0 0.0
2015-Aug-21 14:33N 35°27' E 139°40'0 0.0
2015-Aug-21 13:33N 35°27' E 139°40'0 0.0
2015-Aug-21 12:33N 35°27' E 139°40'0 0.0
2015-Aug-21 11:33N 35°27' E 139°40'0 0.0
2015-Aug-21 10:33N 35°27' E 139°40'0 0.0
2015-Aug-21 09:33N 35°27' E 139°40'  
Track history (hours):
 
Tides and Currents Weather Stations Pressure Air Temp Water Temp Dewpoint Dewpoint Depression Visibility Wind Speed Wind Dir Waves Ship Positions

Awaji Maru

Last reported at 2015-Aug-31 08:34 UTC. Time now 2015-Aug-31 08:54 UTC.
Position N 35°23' E 139°40'.

Length 37 m; draft 3 m.

Type: Tug. MMSI: 431001074.

Date/timePositionNaut miles runAvg speedWind from/ knotsBaromVisibWave heightAir tempDewpointWater temp
2015-Aug-31 08:34N 35°23' E 139°40'1 0.9
2015-Aug-31 07:33N 35°24' E 139°41'4 4.1
2015-Aug-31 06:33N 35°28' E 139°42'0 0.4
2015-Aug-31 05:33N 35°28' E 139°42'3 3.3
2015-Aug-31 04:33N 35°24' E 139°42'1 0.9
2015-Aug-31 03:34N 35°24' E 139°41'2 1.5
2015-Aug-31 02:33N 35°25' E 139°42'2 2.3
2015-Aug-31 01:33N 35°27' E 139°40'0 0.0
2015-Aug-31 00:33N 35°27' E 139°40'2 1.7
2015-Aug-30 23:33N 35°29' E 139°39'4 3.8
2015-Aug-30 22:33N 35°25' E 139°41'1 1.1
2015-Aug-30 21:33N 35°26' E 139°43'3 2.8
2015-Aug-30 20:33N 35°27' E 139°40'0 0.1
2015-Aug-30 19:33N 35°27' E 139°40'0 0.0
2015-Aug-30 18:33N 35°27' E 139°40'0 0.0
2015-Aug-30 17:33N 35°27' E 139°40'0 0.0
2015-Aug-30 16:33N 35°27' E 139°40'0 0.0
2015-Aug-30 15:33N 35°27' E 139°40'0 0.0
2015-Aug-30 14:33N 35°27' E 139°40'0 0.0
2015-Aug-30 13:33N 35°27' E 139°40'0 0.0
2015-Aug-30 12:33N 35°27' E 139°40'0 0.0
2015-Aug-30 11:33N 35°27' E 139°40'0 0.0
2015-Aug-30 10:33N 35°27' E 139°40'0 0.0
2015-Aug-30 09:33N 35°27' E 139°40'0 0.0
2015-Aug-30 08:33N 35°27' E 139°40'3 3.4
2015-Aug-30 07:33N 35°24' E 139°40'1 1.4
2015-Aug-30 06:33N 35°24' E 139°39'3 2.6
2015-Aug-30 05:33N 35°24' E 139°42'2 2.2
2015-Aug-30 04:33N 35°26' E 139°41'1 0.6
2015-Aug-30 03:33N 35°26' E 139°42'2 2.5
2015-Aug-30 02:33N 35°24' E 139°40'0 0.1
2015-Aug-30 01:33N 35°24' E 139°39'2 1.9
2015-Aug-30 00:33N 35°22' E 139°41'2 1.5
2015-Aug-29 23:33N 35°24' E 139°40'1 0.7
2015-Aug-29 22:34N 35°24' E 139°41'4 3.6
2015-Aug-29 21:33N 35°27' E 139°40'0 0.0
2015-Aug-29 20:33N 35°27' E 139°40'0 0.0
2015-Aug-29 19:33N 35°27' E 139°40'0 0.0
2015-Aug-29 18:33N 35°27' E 139°40'0 0.0
2015-Aug-29 17:33N 35°27' E 139°40'0 0.0
2015-Aug-29 16:33N 35°27' E 139°40'0 0.0
2015-Aug-29 15:33N 35°27' E 139°40'0 0.0
2015-Aug-29 14:33N 35°27' E 139°40'0 0.0
2015-Aug-29 13:33N 35°27' E 139°40'0 0.0
2015-Aug-29 12:33N 35°27' E 139°40'0 0.0
2015-Aug-29 11:33N 35°27' E 139°40'0 0.0
2015-Aug-29 10:33N 35°27' E 139°40'0 0.0
2015-Aug-29 09:33N 35°27' E 139°40'0 0.0
2015-Aug-29 08:33N 35°27' E 139°40'4 3.9
2015-Aug-29 07:33N 35°28' E 139°44'2 2.2
2015-Aug-29 06:33N 35°30' E 139°45'2 2.4
2015-Aug-29 05:33N 35°29' E 139°42'4 3.6
2015-Aug-29 04:33N 35°26' E 139°44'4 4.2
2015-Aug-29 03:33N 35°27' E 139°40'1 0.8
2015-Aug-29 02:33N 35°28' E 139°41'6 5.8
2015-Aug-29 01:34N 35°31' E 139°46'0 0.1
2015-Aug-29 00:33N 35°31' E 139°46'3 3.4
2015-Aug-28 23:33N 35°28' E 139°47'1 0.9
2015-Aug-28 22:33N 35°29' E 139°47'3 2.9
2015-Aug-28 21:34N 35°32' E 139°46'7 6.8
2015-Aug-28 20:34N 35°27' E 139°40'0 0.1
2015-Aug-28 19:33N 35°27' E 139°40'0 0.0
2015-Aug-28 18:33N 35°27' E 139°40'0 0.0
2015-Aug-28 17:33N 35°27' E 139°40'0 0.0
2015-Aug-28 16:33N 35°27' E 139°40'0 0.0
2015-Aug-28 15:33N 35°27' E 139°40'0 0.0
2015-Aug-28 14:33N 35°27' E 139°40'0 0.0
2015-Aug-28 13:33N 35°27' E 139°40'0 0.0
2015-Aug-28 12:33N 35°27' E 139°40'0 0.0
2015-Aug-28 11:33N 35°27' E 139°40'0 0.0
2015-Aug-28 10:33N 35°27' E 139°40'0 0.0
2015-Aug-28 09:33N 35°27' E 139°40'0 0.2
2015-Aug-28 08:33N 35°27' E 139°40'2 1.9
2015-Aug-28 07:33N 35°25' E 139°41'0 0.1
2015-Aug-28 06:33N 35°25' E 139°41'2 1.9
2015-Aug-28 05:34N 35°27' E 139°41'0 0.4
2015-Aug-28 04:33N 35°27' E 139°41'2 2.1
2015-Aug-28 03:33N 35°26' E 139°43'1 1.0
2015-Aug-28 02:33N 35°26' E 139°42'0 0.0
2015-Aug-28 01:33N 35°26' E 139°42'8 8.4
2015-Aug-28 00:33N 35°30' E 139°51'6 6.2
2015-Aug-27 23:33N 35°28' E 139°58'5 4.8
2015-Aug-27 22:33N 35°28' E 139°52'1010.1
2015-Aug-27 21:33N 35°27' E 139°40'0 0.2
2015-Aug-27 20:33N 35°27' E 139°40'0 0.0
2015-Aug-27 19:33N 35°27' E 139°40'0 0.0
2015-Aug-27 18:33N 35°27' E 139°40'0 0.0
2015-Aug-27 17:33N 35°27' E 139°40'0 0.0
2015-Aug-27 16:33N 35°27' E 139°40'0 0.0
2015-Aug-27 15:33N 35°27' E 139°40'0 0.0
2015-Aug-27 14:33N 35°27' E 139°40'0 0.0
2015-Aug-27 13:33N 35°27' E 139°40'0 0.0
2015-Aug-27 12:33N 35°27' E 139°40'0 0.0
2015-Aug-27 11:33N 35°27' E 139°40'0 0.0
2015-Aug-27 10:33N 35°27' E 139°40'0 0.0
2015-Aug-27 09:33N 35°27' E 139°40'2 2.3
2015-Aug-27 08:33N 35°28' E 139°42'2 2.4
2015-Aug-27 07:33N 35°27' E 139°39'0 0.0
2015-Aug-27 06:33N 35°27' E 139°39'0 0.0
2015-Aug-27 05:33N 35°27' E 139°39'3 2.5
2015-Aug-27 04:33N 35°25' E 139°39'0 0.1
2015-Aug-27 03:33N 35°24' E 139°39'2 2.2
2015-Aug-27 02:33N 35°23' E 139°41'4 3.9
2015-Aug-27 01:33N 35°27' E 139°40'0 0.0
2015-Aug-27 00:33N 35°27' E 139°40'0 0.0
2015-Aug-26 23:33N 35°27' E 139°40'0 0.0
2015-Aug-26 22:33N 35°27' E 139°40'0 0.0
2015-Aug-26 21:33N 35°27' E 139°40'0 0.0
2015-Aug-26 20:33N 35°27' E 139°40'0 0.0
2015-Aug-26 19:33N 35°27' E 139°40'0 0.0
2015-Aug-26 18:33N 35°27' E 139°40'0 0.0
2015-Aug-26 17:33N 35°27' E 139°40'0 0.0
2015-Aug-26 16:33N 35°27' E 139°40'0 0.0
2015-Aug-26 15:33N 35°27' E 139°40'0 0.0
2015-Aug-26 14:33N 35°27' E 139°40'0 0.0
2015-Aug-26 13:33N 35°27' E 139°40'0 0.0
2015-Aug-26 12:33N 35°27' E 139°40'0 0.0
2015-Aug-26 11:33N 35°27' E 139°40'0 0.0
2015-Aug-26 10:33N 35°27' E 139°40'0 0.0
2015-Aug-26 09:33N 35°27' E 139°40'0 0.0
2015-Aug-26 08:33N 35°27' E 139°40'0 0.0
2015-Aug-26 07:33N 35°27' E 139°40'0 0.0
2015-Aug-26 06:33N 35°27' E 139°40'0 0.0
2015-Aug-26 05:33N 35°27' E 139°40'0 0.0
2015-Aug-26 04:33N 35°27' E 139°40'0 0.0
2015-Aug-26 03:33N 35°27' E 139°40'0 0.0
2015-Aug-26 02:33N 35°27' E 139°40'0 0.0
2015-Aug-26 01:33N 35°27' E 139°40'0 0.0
2015-Aug-26 00:33N 35°27' E 139°40'0 0.0
2015-Aug-25 23:33N 35°27' E 139°40'0 0.0
2015-Aug-25 22:33N 35°27' E 139°40'2 2.2
2015-Aug-25 21:34N 35°25' E 139°42'0 0.0
2015-Aug-25 20:33N 35°25' E 139°41'2 1.6
2015-Aug-25 19:33N 35°24' E 139°41'1 1.0
2015-Aug-25 18:33N 35°23' E 139°40'3 3.3
2015-Aug-25 17:34N 35°26' E 139°41'2 1.5
2015-Aug-25 16:33N 35°27' E 139°39'0 0.0
2015-Aug-25 15:33N 35°27' E 139°39'0 0.0
2015-Aug-25 14:33N 35°27' E 139°39'0 0.0
2015-Aug-25 13:33N 35°27' E 139°39'0 0.0
2015-Aug-25 12:33N 35°27' E 139°39'0 0.0
2015-Aug-25 11:33N 35°27' E 139°39'0 0.2
2015-Aug-25 10:33N 35°27' E 139°39'0 0.2
2015-Aug-25 09:33N 35°27' E 139°39'0 0.0
2015-Aug-25 08:33N 35°27' E 139°39'0 0.0
2015-Aug-25 07:33N 35°27' E 139°39'1 1.3
2015-Aug-25 06:33N 35°27' E 139°41'1 0.5
2015-Aug-25 05:33N 35°28' E 139°41'0 0.0
2015-Aug-25 04:33N 35°28' E 139°41'0 0.0
2015-Aug-25 03:33N 35°28' E 139°41'0 0.0
2015-Aug-25 02:33N 35°28' E 139°41'0 0.0
2015-Aug-25 01:33N 35°28' E 139°41'0 0.0
2015-Aug-25 00:33N 35°28' E 139°41'2 2.4
2015-Aug-24 23:33N 35°26' E 139°42'3 2.5
2015-Aug-24 22:33N 35°27' E 139°40'0 0.0
2015-Aug-24 21:33N 35°27' E 139°40'0 0.0
2015-Aug-24 20:33N 35°27' E 139°40'0 0.0
2015-Aug-24 19:33N 35°27' E 139°40'0 0.0
2015-Aug-24 18:33N 35°27' E 139°40'0 0.0
2015-Aug-24 17:33N 35°27' E 139°40'0 0.0
2015-Aug-24 16:33N 35°27' E 139°40'0 0.0
2015-Aug-24 15:33N 35°27' E 139°40'0 0.0
2015-Aug-24 14:33N 35°27' E 139°40'0 0.0
2015-Aug-24 13:33N 35°27' E 139°40'0 0.0
2015-Aug-24 12:33N 35°27' E 139°40'0 0.0
2015-Aug-24 11:33N 35°27' E 139°40'0 0.0
2015-Aug-24 10:33N 35°27' E 139°40'0 0.0
2015-Aug-24 09:33N 35°27' E 139°40'0 0.0
2015-Aug-24 08:33N 35°27' E 139°40'0 0.0
2015-Aug-24 07:33N 35°27' E 139°40'0 0.0
2015-Aug-24 06:33N 35°27' E 139°40'1 0.8
2015-Aug-24 05:33N 35°27' E 139°41'1 0.9
2015-Aug-24 04:33N 35°26' E 139°41'1 1.3
2015-Aug-24 03:33N 35°28' E 139°41'0 0.0
2015-Aug-24 02:33N 35°28' E 139°41'0 0.0
2015-Aug-24 01:33N 35°28' E 139°41'1 0.9
2015-Aug-24 00:33N 35°28' E 139°42'3 2.7
2015-Aug-23 23:33N 35°26' E 139°44'4 4.1
2015-Aug-23 22:33N 35°27' E 139°40'0 0.0
2015-Aug-23 21:33N 35°27' E 139°40'0 0.0
2015-Aug-23 20:33N 35°27' E 139°40'0 0.0
2015-Aug-23 19:33N 35°27' E 139°40'0 0.0
2015-Aug-23 18:33N 35°27' E 139°40'0 0.0
2015-Aug-23 17:33N 35°27' E 139°40'0 0.0
2015-Aug-23 16:33N 35°27' E 139°40'0 0.0
2015-Aug-23 15:33N 35°27' E 139°40'0 0.0
2015-Aug-23 14:33N 35°27' E 139°40'0 0.0
2015-Aug-23 13:33N 35°27' E 139°40'0 0.0
2015-Aug-23 12:33N 35°27' E 139°40'0 0.0
2015-Aug-23 11:33N 35°27' E 139°40'0 0.0
2015-Aug-23 10:33N 35°27' E 139°40'0 0.0
2015-Aug-23 09:33N 35°27' E 139°40'0 0.0
2015-Aug-23 08:33N 35°27' E 139°40'0 0.0
2015-Aug-23 07:33N 35°27' E 139°40'0 0.0
2015-Aug-23 06:33N 35°27' E 139°40'0 0.0
2015-Aug-23 05:33N 35°27' E 139°40'0 0.0
2015-Aug-23 04:33N 35°27' E 139°40'0 0.0
2015-Aug-23 03:33N 35°27' E 139°40'0 0.0
2015-Aug-23 02:33N 35°27' E 139°40'0 0.0
2015-Aug-23 01:33N 35°27' E 139°40'0 0.0
2015-Aug-23 00:33N 35°27' E 139°40'0 0.0
2015-Aug-22 23:33N 35°27' E 139°40'0 0.0
2015-Aug-22 22:33N 35°27' E 139°40'0 0.0
2015-Aug-22 21:33N 35°27' E 139°40'0 0.0
2015-Aug-22 20:33N 35°27' E 139°40'0 0.0
2015-Aug-22 19:33N 35°27' E 139°40'0 0.0
2015-Aug-22 18:33N 35°27' E 139°40'0 0.0
2015-Aug-22 17:33N 35°27' E 139°40'0 0.0
2015-Aug-22 16:33N 35°27' E 139°40'0 0.0
2015-Aug-22 15:33N 35°27' E 139°40'0 0.0
2015-Aug-22 14:33N 35°27' E 139°40'0 0.0
2015-Aug-22 13:33N 35°27' E 139°40'0 0.0
2015-Aug-22 12:33N 35°27' E 139°40'0 0.0
2015-Aug-22 11:33N 35°27' E 139°40'0 0.0
2015-Aug-22 10:33N 35°27' E 139°40'0 0.0
2015-Aug-22 09:33N 35°27' E 139°40'0 0.4
2015-Aug-22 08:33N 35°27' E 139°40'4 3.7
2015-Aug-22 07:33N 35°24' E 139°42'4 3.5
2015-Aug-22 06:33N 35°27' E 139°40'1 1.5
2015-Aug-22 05:33N 35°27' E 139°42'0 0.0
2015-Aug-22 04:33N 35°27' E 139°42'3 2.8
2015-Aug-22 03:33N 35°24' E 139°42'1 0.7
2015-Aug-22 02:33N 35°24' E 139°41'1 1.4
2015-Aug-22 01:33N 35°23' E 139°40'0 0.0
2015-Aug-22 00:33N 35°23' E 139°40'0 0.0
2015-Aug-21 23:33N 35°23' E 139°40'2 2.0
2015-Aug-21 22:33N 35°24' E 139°37'2 2.0
2015-Aug-21 21:33N 35°24' E 139°40'3 3.2
2015-Aug-21 20:33N 35°27' E 139°39'0 0.1
2015-Aug-21 19:33N 35°27' E 139°40'0 0.0
2015-Aug-21 18:33N 35°27' E 139°40'0 0.0
2015-Aug-21 17:33N 35°27' E 139°40'0 0.0
2015-Aug-21 16:33N 35°27' E 139°40'0 0.0
2015-Aug-21 15:33N 35°27' E 139°40'0 0.0
2015-Aug-21 14:33N 35°27' E 139°40'0 0.0
2015-Aug-21 13:33N 35°27' E 139°40'0 0.0
2015-Aug-21 12:33N 35°27' E 139°40'0 0.0
2015-Aug-21 11:33N 35°27' E 139°40'0 0.0
2015-Aug-21 10:33N 35°27' E 139°40'0 0.0
2015-Aug-21 09:33N 35°27' E 139°40'  

Dump ship's entire track history